sensor_id;sensor_type;location;lat;lon;timestamp;P1;durP1;ratioP1;P2;durP2;ratioP2
20110;SDS011;10216;42.658;23.248;2023-08-31T00:01:38;1.23;;;0.80;;
20110;SDS011;10216;42.658;23.248;2023-08-31T00:04:03;0.40;;;0.40;;
20110;SDS011;10216;42.658;23.248;2023-08-31T00:06:29;0.97;;;0.53;;
20110;SDS011;10216;42.658;23.248;2023-08-31T00:08:55;0.30;;;0.30;;
20110;SDS011;10216;42.658;23.248;2023-08-31T00:11:20;0.47;;;0.43;;
20110;SDS011;10216;42.658;23.248;2023-08-31T00:13:46;0.57;;;0.57;;
20110;SDS011;10216;42.658;23.248;2023-08-31T00:16:11;0.43;;;0.43;;
20110;SDS011;10216;42.658;23.248;2023-08-31T00:18:37;0.87;;;0.50;;
20110;SDS011;10216;42.658;23.248;2023-08-31T00:21:03;0.50;;;0.40;;
20110;SDS011;10216;42.658;23.248;2023-08-31T00:23:29;1.03;;;0.80;;
20110;SDS011;10216;42.658;23.248;2023-08-31T00:25:54;0.60;;;0.60;;
20110;SDS011;10216;42.658;23.248;2023-08-31T00:28:22;0.73;;;0.50;;
20110;SDS011;10216;42.658;23.248;2023-08-31T00:30:47;0.83;;;0.53;;
20110;SDS011;10216;42.658;23.248;2023-08-31T00:33:13;0.60;;;0.60;;
20110;SDS011;10216;42.658;23.248;2023-08-31T00:35:38;0.53;;;0.53;;
20110;SDS011;10216;42.658;23.248;2023-08-31T00:38:08;0.67;;;0.60;;
20110;SDS011;10216;42.658;23.248;2023-08-31T00:40:37;0.30;;;0.30;;
20110;SDS011;10216;42.658;23.248;2023-08-31T00:43:06;0.50;;;0.50;;
20110;SDS011;10216;42.658;23.248;2023-08-31T00:45:32;0.40;;;0.40;;
20110;SDS011;10216;42.658;23.248;2023-08-31T00:47:57;0.40;;;0.40;;
20110;SDS011;10216;42.658;23.248;2023-08-31T00:50:23;0.47;;;0.47;;
20110;SDS011;10216;42.658;23.248;2023-08-31T00:52:48;1.13;;;0.63;;
20110;SDS011;10216;42.658;23.248;2023-08-31T00:55:13;0.60;;;0.53;;
20110;SDS011;10216;42.658;23.248;2023-08-31T00:57:39;0.70;;;0.70;;
20110;SDS011;10216;42.658;23.248;2023-08-31T01:00:06;0.63;;;0.63;;
20110;SDS011;10216;42.658;23.248;2023-08-31T01:02:40;0.33;;;0.33;;
20110;SDS011;10216;42.658;23.248;2023-08-31T01:12:54;0.70;;;0.70;;
20110;SDS011;10216;42.658;23.248;2023-08-31T01:15:20;1.13;;;0.70;;
20110;SDS011;10216;42.658;23.248;2023-08-31T01:17:52;0.73;;;0.57;;
20110;SDS011;10216;42.658;23.248;2023-08-31T01:20:21;0.40;;;0.40;;
20110;SDS011;10216;42.658;23.248;2023-08-31T01:22:55;0.50;;;0.50;;
20110;SDS011;10216;42.658;23.248;2023-08-31T01:25:20;0.53;;;0.53;;
20110;SDS011;10216;42.658;23.248;2023-08-31T01:27:46;0.30;;;0.30;;
20110;SDS011;10216;42.658;23.248;2023-08-31T01:30:11;1.33;;;0.60;;
20110;SDS011;10216;42.658;23.248;2023-08-31T01:32:37;0.50;;;0.40;;
20110;SDS011;10216;42.658;23.248;2023-08-31T01:35:03;0.50;;;0.50;;
20110;SDS011;10216;42.658;23.248;2023-08-31T01:39:59;0.50;;;0.40;;
20110;SDS011;10216;42.658;23.248;2023-08-31T01:42:28;0.50;;;0.50;;
20110;SDS011;10216;42.658;23.248;2023-08-31T01:44:55;0.60;;;0.60;;
20110;SDS011;10216;42.658;23.248;2023-08-31T01:47:21;0.80;;;0.60;;
20110;SDS011;10216;42.658;23.248;2023-08-31T01:49:46;0.47;;;0.47;;
20110;SDS011;10216;42.658;23.248;2023-08-31T01:52:11;0.83;;;0.43;;
20110;SDS011;10216;42.658;23.248;2023-08-31T01:54:36;0.73;;;0.60;;
20110;SDS011;10216;42.658;23.248;2023-08-31T01:57:05;0.50;;;0.50;;
20110;SDS011;10216;42.658;23.248;2023-08-31T01:59:31;0.80;;;0.57;;
20110;SDS011;10216;42.658;23.248;2023-08-31T02:01:56;0.63;;;0.50;;
20110;SDS011;10216;42.658;23.248;2023-08-31T02:04:23;0.57;;;0.50;;
20110;SDS011;10216;42.658;23.248;2023-08-31T02:06:48;0.43;;;0.43;;
20110;SDS011;10216;42.658;23.248;2023-08-31T02:09:13;0.53;;;0.43;;
20110;SDS011;10216;42.658;23.248;2023-08-31T02:11:39;0.77;;;0.57;;
20110;SDS011;10216;42.658;23.248;2023-08-31T02:14:04;0.80;;;0.73;;
20110;SDS011;10216;42.658;23.248;2023-08-31T02:16:30;0.87;;;0.60;;
20110;SDS011;10216;42.658;23.248;2023-08-31T02:18:56;0.87;;;0.50;;
20110;SDS011;10216;42.658;23.248;2023-08-31T02:21:21;1.13;;;0.80;;
20110;SDS011;10216;42.658;23.248;2023-08-31T02:23:47;1.60;;;0.70;;
20110;SDS011;10216;42.658;23.248;2023-08-31T02:26:13;0.53;;;0.53;;
20110;SDS011;10216;42.658;23.248;2023-08-31T02:28:38;0.60;;;0.60;;
20110;SDS011;10216;42.658;23.248;2023-08-31T02:31:03;0.60;;;0.40;;
20110;SDS011;10216;42.658;23.248;2023-08-31T02:33:28;0.77;;;0.67;;
20110;SDS011;10216;42.658;23.248;2023-08-31T02:35:54;0.40;;;0.40;;
20110;SDS011;10216;42.658;23.248;2023-08-31T02:38:19;0.50;;;0.50;;
20110;SDS011;10216;42.658;23.248;2023-08-31T02:40:47;1.37;;;0.63;;
20110;SDS011;10216;42.658;23.248;2023-08-31T02:43:13;0.53;;;0.50;;
20110;SDS011;10216;42.658;23.248;2023-08-31T02:45:38;0.53;;;0.40;;
20110;SDS011;10216;42.658;23.248;2023-08-31T02:48:04;0.50;;;0.50;;
20110;SDS011;10216;42.658;23.248;2023-08-31T02:50:31;0.63;;;0.60;;
20110;SDS011;10216;42.658;23.248;2023-08-31T02:52:56;1.53;;;0.70;;
20110;SDS011;10216;42.658;23.248;2023-08-31T02:55:22;0.33;;;0.33;;
20110;SDS011;10216;42.658;23.248;2023-08-31T02:57:47;0.50;;;0.40;;
20110;SDS011;10216;42.658;23.248;2023-08-31T03:00:13;0.40;;;0.40;;
20110;SDS011;10216;42.658;23.248;2023-08-31T03:02:38;0.60;;;0.60;;
20110;SDS011;10216;42.658;23.248;2023-08-31T03:05:04;0.93;;;0.50;;
20110;SDS011;10216;42.658;23.248;2023-08-31T03:07:29;0.43;;;0.43;;
20110;SDS011;10216;42.658;23.248;2023-08-31T03:09:54;0.93;;;0.60;;
20110;SDS011;10216;42.658;23.248;2023-08-31T03:12:20;0.50;;;0.50;;
20110;SDS011;10216;42.658;23.248;2023-08-31T03:14:45;0.90;;;0.50;;
20110;SDS011;10216;42.658;23.248;2023-08-31T03:17:10;0.83;;;0.50;;
20110;SDS011;10216;42.658;23.248;2023-08-31T03:19:35;1.13;;;0.70;;
20110;SDS011;10216;42.658;23.248;2023-08-31T03:22:01;0.50;;;0.50;;
20110;SDS011;10216;42.658;23.248;2023-08-31T03:24:26;0.67;;;0.67;;
20110;SDS011;10216;42.658;23.248;2023-08-31T03:26:51;0.50;;;0.50;;
20110;SDS011;10216;42.658;23.248;2023-08-31T03:29:16;0.73;;;0.57;;
20110;SDS011;10216;42.658;23.248;2023-08-31T03:31:42;0.70;;;0.70;;
20110;SDS011;10216;42.658;23.248;2023-08-31T03:34:07;0.60;;;0.47;;
20110;SDS011;10216;42.658;23.248;2023-08-31T03:36:32;0.63;;;0.40;;
20110;SDS011;10216;42.658;23.248;2023-08-31T03:38:58;0.57;;;0.53;;
20110;SDS011;10216;42.658;23.248;2023-08-31T03:41:23;0.90;;;0.70;;
20110;SDS011;10216;42.658;23.248;2023-08-31T03:43:49;0.50;;;0.50;;
20110;SDS011;10216;42.658;23.248;2023-08-31T03:46:14;0.80;;;0.63;;
20110;SDS011;10216;42.658;23.248;2023-08-31T03:48:40;0.80;;;0.70;;
20110;SDS011;10216;42.658;23.248;2023-08-31T03:51:05;0.80;;;0.50;;
20110;SDS011;10216;42.658;23.248;2023-08-31T03:53:30;0.93;;;0.40;;
20110;SDS011;10216;42.658;23.248;2023-08-31T03:55:55;0.60;;;0.60;;
20110;SDS011;10216;42.658;23.248;2023-08-31T03:58:21;0.47;;;0.47;;
20110;SDS011;10216;42.658;23.248;2023-08-31T04:00:48;0.40;;;0.40;;
20110;SDS011;10216;42.658;23.248;2023-08-31T04:03:14;0.40;;;0.40;;
20110;SDS011;10216;42.658;23.248;2023-08-31T04:05:39;0.37;;;0.30;;
20110;SDS011;10216;42.658;23.248;2023-08-31T04:08:04;0.50;;;0.50;;
20110;SDS011;10216;42.658;23.248;2023-08-31T04:10:30;0.60;;;0.60;;
20110;SDS011;10216;42.658;23.248;2023-08-31T04:12:56;0.57;;;0.50;;
20110;SDS011;10216;42.658;23.248;2023-08-31T04:15:22;0.40;;;0.40;;
20110;SDS011;10216;42.658;23.248;2023-08-31T04:17:47;0.60;;;0.60;;
20110;SDS011;10216;42.658;23.248;2023-08-31T04:20:12;0.50;;;0.40;;
20110;SDS011;10216;42.658;23.248;2023-08-31T04:22:37;1.27;;;0.43;;
20110;SDS011;10216;42.658;23.248;2023-08-31T04:25:03;1.80;;;0.70;;
20110;SDS011;10216;42.658;23.248;2023-08-31T04:27:28;0.40;;;0.40;;
20110;SDS011;10216;42.658;23.248;2023-08-31T04:29:56;0.90;;;0.90;;
20110;SDS011;10216;42.658;23.248;2023-08-31T04:32:21;0.87;;;0.70;;
20110;SDS011;10216;42.658;23.248;2023-08-31T04:34:46;0.60;;;0.60;;
20110;SDS011;10216;42.658;23.248;2023-08-31T04:37:12;0.70;;;0.70;;
20110;SDS011;10216;42.658;23.248;2023-08-31T04:39:37;0.70;;;0.70;;
20110;SDS011;10216;42.658;23.248;2023-08-31T04:42:02;0.63;;;0.63;;
20110;SDS011;10216;42.658;23.248;2023-08-31T04:44:27;0.40;;;0.40;;
20110;SDS011;10216;42.658;23.248;2023-08-31T04:46:53;1.43;;;0.50;;
20110;SDS011;10216;42.658;23.248;2023-08-31T04:49:19;0.50;;;0.50;;
20110;SDS011;10216;42.658;23.248;2023-08-31T04:51:45;0.83;;;0.60;;
20110;SDS011;10216;42.658;23.248;2023-08-31T04:54:11;0.90;;;0.87;;
20110;SDS011;10216;42.658;23.248;2023-08-31T04:56:36;1.00;;;0.60;;
20110;SDS011;10216;42.658;23.248;2023-08-31T04:59:02;0.80;;;0.60;;
20110;SDS011;10216;42.658;23.248;2023-08-31T05:01:30;0.50;;;0.50;;
20110;SDS011;10216;42.658;23.248;2023-08-31T05:03:56;0.60;;;0.60;;
20110;SDS011;10216;42.658;23.248;2023-08-31T05:06:21;0.70;;;0.70;;
20110;SDS011;10216;42.658;23.248;2023-08-31T05:08:47;1.13;;;0.70;;
20110;SDS011;10216;42.658;23.248;2023-08-31T05:11:12;0.60;;;0.60;;
20110;SDS011;10216;42.658;23.248;2023-08-31T05:13:38;1.17;;;1.10;;
20110;SDS011;10216;42.658;23.248;2023-08-31T05:16:03;0.57;;;0.50;;
20110;SDS011;10216;42.658;23.248;2023-08-31T05:18:28;0.50;;;0.50;;
20110;SDS011;10216;42.658;23.248;2023-08-31T05:20:54;0.60;;;0.60;;
20110;SDS011;10216;42.658;23.248;2023-08-31T05:23:19;3.23;;;0.70;;
20110;SDS011;10216;42.658;23.248;2023-08-31T05:25:45;0.40;;;0.40;;
20110;SDS011;10216;42.658;23.248;2023-08-31T05:28:10;0.60;;;0.60;;
20110;SDS011;10216;42.658;23.248;2023-08-31T05:30:35;0.63;;;0.63;;
20110;SDS011;10216;42.658;23.248;2023-08-31T05:33:01;0.50;;;0.50;;
20110;SDS011;10216;42.658;23.248;2023-08-31T05:35:26;1.20;;;0.50;;
20110;SDS011;10216;42.658;23.248;2023-08-31T05:37:52;0.50;;;0.50;;
20110;SDS011;10216;42.658;23.248;2023-08-31T05:40:17;0.40;;;0.40;;
20110;SDS011;10216;42.658;23.248;2023-08-31T05:42:43;0.60;;;0.50;;
20110;SDS011;10216;42.658;23.248;2023-08-31T05:45:08;0.73;;;0.70;;
20110;SDS011;10216;42.658;23.248;2023-08-31T05:47:33;0.93;;;0.60;;
20110;SDS011;10216;42.658;23.248;2023-08-31T05:50:00;0.70;;;0.70;;
20110;SDS011;10216;42.658;23.248;2023-08-31T05:52:25;0.50;;;0.50;;
20110;SDS011;10216;42.658;23.248;2023-08-31T05:54:50;0.67;;;0.40;;
20110;SDS011;10216;42.658;23.248;2023-08-31T05:57:18;0.70;;;0.50;;
20110;SDS011;10216;42.658;23.248;2023-08-31T05:59:43;0.53;;;0.50;;
20110;SDS011;10216;42.658;23.248;2023-08-31T06:02:08;1.00;;;0.70;;
20110;SDS011;10216;42.658;23.248;2023-08-31T06:04:34;0.60;;;0.30;;
20110;SDS011;10216;42.658;23.248;2023-08-31T06:06:59;0.83;;;0.57;;
20110;SDS011;10216;42.658;23.248;2023-08-31T06:09:24;0.40;;;0.40;;
20110;SDS011;10216;42.658;23.248;2023-08-31T06:11:50;0.60;;;0.50;;
20110;SDS011;10216;42.658;23.248;2023-08-31T06:14:15;0.53;;;0.53;;
20110;SDS011;10216;42.658;23.248;2023-08-31T06:16:40;0.57;;;0.40;;
20110;SDS011;10216;42.658;23.248;2023-08-31T06:19:05;0.50;;;0.50;;
20110;SDS011;10216;42.658;23.248;2023-08-31T06:21:31;0.33;;;0.33;;
20110;SDS011;10216;42.658;23.248;2023-08-31T06:23:56;0.67;;;0.50;;
20110;SDS011;10216;42.658;23.248;2023-08-31T06:26:21;0.50;;;0.40;;
20110;SDS011;10216;42.658;23.248;2023-08-31T06:28:46;0.47;;;0.33;;
20110;SDS011;10216;42.658;23.248;2023-08-31T06:31:12;0.50;;;0.40;;
20110;SDS011;10216;42.658;23.248;2023-08-31T06:33:37;0.50;;;0.50;;
20110;SDS011;10216;42.658;23.248;2023-08-31T06:36:02;0.40;;;0.40;;
20110;SDS011;10216;42.658;23.248;2023-08-31T06:38:27;0.60;;;0.57;;
20110;SDS011;10216;42.658;23.248;2023-08-31T06:40:53;0.50;;;0.50;;
20110;SDS011;10216;42.658;23.248;2023-08-31T06:43:23;1.07;;;0.47;;
20110;SDS011;10216;42.658;23.248;2023-08-31T06:45:49;0.33;;;0.33;;
20110;SDS011;10216;42.658;23.248;2023-08-31T06:48:14;0.57;;;0.57;;
20110;SDS011;10216;42.658;23.248;2023-08-31T06:50:39;0.50;;;0.50;;
20110;SDS011;10216;42.658;23.248;2023-08-31T06:53:05;0.43;;;0.40;;
20110;SDS011;10216;42.658;23.248;2023-08-31T06:55:30;0.50;;;0.50;;
20110;SDS011;10216;42.658;23.248;2023-08-31T06:57:57;0.70;;;0.50;;
20110;SDS011;10216;42.658;23.248;2023-08-31T07:00:22;0.90;;;0.47;;
20110;SDS011;10216;42.658;23.248;2023-08-31T07:02:47;0.30;;;0.30;;
20110;SDS011;10216;42.658;23.248;2023-08-31T07:05:12;1.30;;;0.50;;
20110;SDS011;10216;42.658;23.248;2023-08-31T07:07:38;0.30;;;0.30;;
20110;SDS011;10216;42.658;23.248;2023-08-31T07:10:03;0.40;;;0.40;;
20110;SDS011;10216;42.658;23.248;2023-08-31T07:12:30;0.80;;;0.63;;
20110;SDS011;10216;42.658;23.248;2023-08-31T07:14:55;0.40;;;0.40;;
20110;SDS011;10216;42.658;23.248;2023-08-31T07:17:21;0.40;;;0.40;;
20110;SDS011;10216;42.658;23.248;2023-08-31T07:19:46;0.40;;;0.40;;
20110;SDS011;10216;42.658;23.248;2023-08-31T07:22:11;0.60;;;0.50;;
20110;SDS011;10216;42.658;23.248;2023-08-31T07:24:37;0.73;;;0.30;;
20110;SDS011;10216;42.658;23.248;2023-08-31T07:27:02;0.63;;;0.40;;
20110;SDS011;10216;42.658;23.248;2023-08-31T07:29:28;1.13;;;0.60;;
20110;SDS011;10216;42.658;23.248;2023-08-31T07:31:53;0.40;;;0.40;;
20110;SDS011;10216;42.658;23.248;2023-08-31T07:34:18;0.57;;;0.50;;
20110;SDS011;10216;42.658;23.248;2023-08-31T07:36:44;1.13;;;0.70;;
20110;SDS011;10216;42.658;23.248;2023-08-31T07:39:09;0.57;;;0.57;;
20110;SDS011;10216;42.658;23.248;2023-08-31T07:41:35;0.30;;;0.30;;
20110;SDS011;10216;42.658;23.248;2023-08-31T07:44:00;0.50;;;0.50;;
20110;SDS011;10216;42.658;23.248;2023-08-31T07:46:25;0.40;;;0.40;;
20110;SDS011;10216;42.658;23.248;2023-08-31T07:48:50;0.47;;;0.47;;
20110;SDS011;10216;42.658;23.248;2023-08-31T07:51:16;1.33;;;0.83;;
20110;SDS011;10216;42.658;23.248;2023-08-31T07:53:41;0.40;;;0.40;;
20110;SDS011;10216;42.658;23.248;2023-08-31T07:56:06;0.30;;;0.30;;
20110;SDS011;10216;42.658;23.248;2023-08-31T07:58:31;0.55;;;0.55;;
20110;SDS011;10216;42.658;23.248;2023-08-31T08:00:57;0.98;;;0.32;;
20110;SDS011;10216;42.658;23.248;2023-08-31T08:03:22;0.60;;;0.43;;
20110;SDS011;10216;42.658;23.248;2023-08-31T08:05:48;0.40;;;0.40;;
20110;SDS011;10216;42.658;23.248;2023-08-31T08:08:13;0.80;;;0.50;;
20110;SDS011;10216;42.658;23.248;2023-08-31T08:10:38;0.47;;;0.43;;
20110;SDS011;10216;42.658;23.248;2023-08-31T08:13:04;0.57;;;0.50;;
20110;SDS011;10216;42.658;23.248;2023-08-31T08:15:30;0.75;;;0.55;;
20110;SDS011;10216;42.658;23.248;2023-08-31T08:17:55;0.90;;;0.85;;
20110;SDS011;10216;42.658;23.248;2023-08-31T08:20:22;1.17;;;1.08;;
20110;SDS011;10216;42.658;23.248;2023-08-31T08:22:47;2.15;;;1.08;;
20110;SDS011;10216;42.658;23.248;2023-08-31T08:25:14;0.88;;;0.88;;
20110;SDS011;10216;42.658;23.248;2023-08-31T08:27:39;1.98;;;1.00;;
20110;SDS011;10216;42.658;23.248;2023-08-31T08:30:04;1.10;;;1.00;;
20110;SDS011;10216;42.658;23.248;2023-08-31T08:32:30;1.33;;;1.02;;
20110;SDS011;10216;42.658;23.248;2023-08-31T08:34:55;1.38;;;1.23;;
20110;SDS011;10216;42.658;23.248;2023-08-31T08:37:20;1.35;;;1.00;;
20110;SDS011;10216;42.658;23.248;2023-08-31T08:39:49;1.30;;;1.05;;
20110;SDS011;10216;42.658;23.248;2023-08-31T08:42:15;0.80;;;0.80;;
20110;SDS011;10216;42.658;23.248;2023-08-31T08:44:41;1.17;;;0.85;;
20110;SDS011;10216;42.658;23.248;2023-08-31T08:47:07;1.38;;;1.02;;
20110;SDS011;10216;42.658;23.248;2023-08-31T08:49:33;1.23;;;0.90;;
20110;SDS011;10216;42.658;23.248;2023-08-31T08:51:58;1.10;;;1.00;;
20110;SDS011;10216;42.658;23.248;2023-08-31T08:54:24;1.20;;;0.95;;
20110;SDS011;10216;42.658;23.248;2023-08-31T08:56:49;1.55;;;1.05;;
20110;SDS011;10216;42.658;23.248;2023-08-31T08:59:15;1.15;;;0.93;;
20110;SDS011;10216;42.658;23.248;2023-08-31T09:01:40;1.48;;;1.10;;
20110;SDS011;10216;42.658;23.248;2023-08-31T09:04:05;1.45;;;1.10;;
20110;SDS011;10216;42.658;23.248;2023-08-31T09:06:33;1.15;;;1.02;;
20110;SDS011;10216;42.658;23.248;2023-08-31T09:08:59;1.58;;;1.00;;
20110;SDS011;10216;42.658;23.248;2023-08-31T09:11:24;1.00;;;0.90;;
20110;SDS011;10216;42.658;23.248;2023-08-31T09:13:50;0.90;;;0.88;;
20110;SDS011;10216;42.658;23.248;2023-08-31T09:16:28;1.65;;;1.00;;
20110;SDS011;10216;42.658;23.248;2023-08-31T09:18:54;1.58;;;0.90;;
20110;SDS011;10216;42.658;23.248;2023-08-31T09:21:19;0.85;;;0.70;;
20110;SDS011;10216;42.658;23.248;2023-08-31T09:23:55;2.20;;;0.93;;
20110;SDS011;10216;42.658;23.248;2023-08-31T09:26:22;1.15;;;0.90;;
20110;SDS011;10216;42.658;23.248;2023-08-31T09:28:47;1.80;;;1.10;;
20110;SDS011;10216;42.658;23.248;2023-08-31T09:31:13;1.20;;;0.90;;
20110;SDS011;10216;42.658;23.248;2023-08-31T09:33:39;1.35;;;1.20;;
20110;SDS011;10216;42.658;23.248;2023-08-31T09:36:14;0.90;;;0.90;;
20110;SDS011;10216;42.658;23.248;2023-08-31T09:38:43;2.00;;;1.20;;
20110;SDS011;10216;42.658;23.248;2023-08-31T09:41:09;1.30;;;1.20;;
20110;SDS011;10216;42.658;23.248;2023-08-31T09:43:34;1.08;;;0.98;;
20110;SDS011;10216;42.658;23.248;2023-08-31T09:46:00;1.30;;;1.17;;
20110;SDS011;10216;42.658;23.248;2023-08-31T09:48:27;1.40;;;1.20;;
20110;SDS011;10216;42.658;23.248;2023-08-31T09:50:53;1.63;;;1.17;;
20110;SDS011;10216;42.658;23.248;2023-08-31T09:53:20;1.48;;;1.17;;
20110;SDS011;10216;42.658;23.248;2023-08-31T09:55:46;1.48;;;1.05;;
20110;SDS011;10216;42.658;23.248;2023-08-31T09:58:12;1.40;;;1.30;;
20110;SDS011;10216;42.658;23.248;2023-08-31T10:00:37;0.98;;;0.85;;
20110;SDS011;10216;42.658;23.248;2023-08-31T10:03:04;1.10;;;1.02;;
20110;SDS011;10216;42.658;23.248;2023-08-31T10:05:29;1.55;;;1.15;;
20110;SDS011;10216;42.658;23.248;2023-08-31T10:07:56;1.50;;;1.23;;
20110;SDS011;10216;42.658;23.248;2023-08-31T10:10:21;1.35;;;1.25;;
20110;SDS011;10216;42.658;23.248;2023-08-31T10:12:50;1.15;;;1.02;;
20110;SDS011;10216;42.658;23.248;2023-08-31T10:15:16;2.17;;;1.48;;
20110;SDS011;10216;42.658;23.248;2023-08-31T10:17:42;2.00;;;1.30;;
20110;SDS011;10216;42.658;23.248;2023-08-31T10:20:08;1.05;;;1.00;;
20110;SDS011;10216;42.658;23.248;2023-08-31T10:22:34;1.17;;;1.08;;
20110;SDS011;10216;42.658;23.248;2023-08-31T10:25:00;1.33;;;1.23;;
20110;SDS011;10216;42.658;23.248;2023-08-31T10:27:25;1.38;;;1.23;;
20110;SDS011;10216;42.658;23.248;2023-08-31T10:29:51;1.55;;;1.23;;
20110;SDS011;10216;42.658;23.248;2023-08-31T10:32:17;1.35;;;1.10;;
20110;SDS011;10216;42.658;23.248;2023-08-31T10:35:04;1.17;;;1.00;;
20110;SDS011;10216;42.658;23.248;2023-08-31T10:37:29;1.65;;;1.27;;
20110;SDS011;10216;42.658;23.248;2023-08-31T10:40:06;1.50;;;1.00;;
20110;SDS011;10216;42.658;23.248;2023-08-31T10:42:31;2.15;;;0.93;;
20110;SDS011;10216;42.658;23.248;2023-08-31T10:45:05;1.20;;;1.00;;
20110;SDS011;10216;42.658;23.248;2023-08-31T10:50:22;1.67;;;1.20;;
20110;SDS011;10216;42.658;23.248;2023-08-31T10:52:48;0.93;;;0.88;;
20110;SDS011;10216;42.658;23.248;2023-08-31T10:55:14;1.17;;;0.95;;
20110;SDS011;10216;42.658;23.248;2023-08-31T10:57:40;1.02;;;0.93;;
20110;SDS011;10216;42.658;23.248;2023-08-31T11:00:06;1.60;;;1.20;;
20110;SDS011;10216;42.658;23.248;2023-08-31T11:02:35;1.80;;;1.30;;
20110;SDS011;10216;42.658;23.248;2023-08-31T11:07:28;1.40;;;1.30;;
20110;SDS011;10216;42.658;23.248;2023-08-31T11:10:05;1.38;;;1.27;;
20110;SDS011;10216;42.658;23.248;2023-08-31T11:12:31;1.30;;;1.20;;
20110;SDS011;10216;42.658;23.248;2023-08-31T11:14:56;1.10;;;1.00;;
20110;SDS011;10216;42.658;23.248;2023-08-31T11:17:22;1.15;;;1.08;;
20110;SDS011;10216;42.658;23.248;2023-08-31T11:19:47;1.00;;;1.00;;
20110;SDS011;10216;42.658;23.248;2023-08-31T11:22:12;0.88;;;0.82;;
20110;SDS011;10216;42.658;23.248;2023-08-31T11:24:38;0.98;;;0.90;;
20110;SDS011;10216;42.658;23.248;2023-08-31T11:27:06;0.85;;;0.82;;
20110;SDS011;10216;42.658;23.248;2023-08-31T11:29:32;1.10;;;1.00;;
20110;SDS011;10216;42.658;23.248;2023-08-31T11:31:57;0.93;;;0.93;;
20110;SDS011;10216;42.658;23.248;2023-08-31T11:34:25;1.00;;;0.90;;
20110;SDS011;10216;42.658;23.248;2023-08-31T11:36:50;0.77;;;0.70;;
20110;SDS011;10216;42.658;23.248;2023-08-31T11:39:17;1.02;;;0.85;;
20110;SDS011;10216;42.658;23.248;2023-08-31T11:41:42;0.98;;;0.88;;
20110;SDS011;10216;42.658;23.248;2023-08-31T11:44:08;0.70;;;0.70;;
20110;SDS011;10216;42.658;23.248;2023-08-31T11:46:35;1.85;;;0.88;;
20110;SDS011;10216;42.658;23.248;2023-08-31T11:49:00;0.82;;;0.80;;
20110;SDS011;10216;42.658;23.248;2023-08-31T11:51:26;0.80;;;0.80;;
20110;SDS011;10216;42.658;23.248;2023-08-31T11:53:54;1.02;;;0.90;;
20110;SDS011;10216;42.658;23.248;2023-08-31T11:56:21;0.93;;;0.80;;
20110;SDS011;10216;42.658;23.248;2023-08-31T11:58:46;0.90;;;0.82;;
20110;SDS011;10216;42.658;23.248;2023-08-31T12:01:17;0.80;;;0.70;;
20110;SDS011;10216;42.658;23.248;2023-08-31T12:03:43;0.90;;;0.80;;
20110;SDS011;10216;42.658;23.248;2023-08-31T12:06:09;0.98;;;0.80;;
20110;SDS011;10216;42.658;23.248;2023-08-31T12:08:34;2.17;;;0.80;;
20110;SDS011;10216;42.658;23.248;2023-08-31T12:11:01;0.85;;;0.68;;
20110;SDS011;10216;42.658;23.248;2023-08-31T12:13:27;1.83;;;0.73;;
20110;SDS011;10216;42.658;23.248;2023-08-31T12:15:54;0.57;;;0.57;;
20110;SDS011;10216;42.658;23.248;2023-08-31T12:18:19;1.63;;;1.02;;
20110;SDS011;10216;42.658;23.248;2023-08-31T12:20:45;1.15;;;0.75;;
20110;SDS011;10216;42.658;23.248;2023-08-31T12:23:10;1.45;;;1.35;;
20110;SDS011;10216;42.658;23.248;2023-08-31T12:25:36;1.23;;;0.95;;
20110;SDS011;10216;42.658;23.248;2023-08-31T12:28:01;1.10;;;0.88;;
20110;SDS011;10216;42.658;23.248;2023-08-31T12:30:27;0.85;;;0.80;;
20110;SDS011;10216;42.658;23.248;2023-08-31T12:32:52;2.47;;;0.90;;
20110;SDS011;10216;42.658;23.248;2023-08-31T12:35:18;0.80;;;0.70;;
20110;SDS011;10216;42.658;23.248;2023-08-31T12:37:43;0.82;;;0.82;;
20110;SDS011;10216;42.658;23.248;2023-08-31T12:40:08;0.90;;;0.70;;
20110;SDS011;10216;42.658;23.248;2023-08-31T12:42:35;0.60;;;0.60;;
20110;SDS011;10216;42.658;23.248;2023-08-31T12:45:00;0.98;;;0.85;;
20110;SDS011;10216;42.658;23.248;2023-08-31T12:47:25;0.70;;;0.60;;
20110;SDS011;10216;42.658;23.248;2023-08-31T12:49:51;0.70;;;0.70;;
20110;SDS011;10216;42.658;23.248;2023-08-31T12:52:16;1.83;;;0.60;;
20110;SDS011;10216;42.658;23.248;2023-08-31T12:54:41;1.77;;;0.60;;
20110;SDS011;10216;42.658;23.248;2023-08-31T12:57:06;0.75;;;0.75;;
20110;SDS011;10216;42.658;23.248;2023-08-31T12:59:32;0.65;;;0.65;;
20110;SDS011;10216;42.658;23.248;2023-08-31T13:01:57;0.68;;;0.68;;
20110;SDS011;10216;42.658;23.248;2023-08-31T13:04:23;0.80;;;0.70;;
20110;SDS011;10216;42.658;23.248;2023-08-31T13:06:48;0.98;;;0.70;;
20110;SDS011;10216;42.658;23.248;2023-08-31T13:09:13;1.08;;;0.88;;
20110;SDS011;10216;42.658;23.248;2023-08-31T13:11:39;1.23;;;0.65;;
20110;SDS011;10216;42.658;23.248;2023-08-31T13:14:04;0.65;;;0.60;;
20110;SDS011;10216;42.658;23.248;2023-08-31T13:16:29;1.00;;;0.70;;
20110;SDS011;10216;42.658;23.248;2023-08-31T13:18:55;0.80;;;0.80;;
20110;SDS011;10216;42.658;23.248;2023-08-31T13:21:20;0.80;;;0.80;;
20110;SDS011;10216;42.658;23.248;2023-08-31T13:23:45;0.80;;;0.80;;
20110;SDS011;10216;42.658;23.248;2023-08-31T13:26:11;0.70;;;0.65;;
20110;SDS011;10216;42.658;23.248;2023-08-31T13:28:37;1.08;;;0.60;;
20110;SDS011;10216;42.658;23.248;2023-08-31T13:31:02;0.63;;;0.60;;
20110;SDS011;10216;42.658;23.248;2023-08-31T13:33:28;0.65;;;0.65;;
20110;SDS011;10216;42.658;23.248;2023-08-31T13:35:57;1.65;;;0.85;;
20110;SDS011;10216;42.658;23.248;2023-08-31T13:38:23;1.08;;;0.80;;
20110;SDS011;10216;42.658;23.248;2023-08-31T13:40:48;0.73;;;0.70;;
20110;SDS011;10216;42.658;23.248;2023-08-31T13:43:18;0.77;;;0.77;;
20110;SDS011;10216;42.658;23.248;2023-08-31T13:45:44;1.73;;;0.80;;
20110;SDS011;10216;42.658;23.248;2023-08-31T13:48:09;1.20;;;0.90;;
20110;SDS011;10216;42.658;23.248;2023-08-31T13:50:34;2.75;;;0.80;;
20110;SDS011;10216;42.658;23.248;2023-08-31T13:53:00;1.00;;;0.90;;
20110;SDS011;10216;42.658;23.248;2023-08-31T13:55:25;0.55;;;0.50;;
20110;SDS011;10216;42.658;23.248;2023-08-31T13:57:51;0.60;;;0.60;;
20110;SDS011;10216;42.658;23.248;2023-08-31T14:00:17;0.70;;;0.70;;
20110;SDS011;10216;42.658;23.248;2023-08-31T14:02:42;0.80;;;0.63;;
20110;SDS011;10216;42.658;23.248;2023-08-31T14:05:08;0.43;;;0.43;;
20110;SDS011;10216;42.658;23.248;2023-08-31T14:07:35;1.45;;;0.73;;
20110;SDS011;10216;42.658;23.248;2023-08-31T14:10:00;0.88;;;0.80;;
20110;SDS011;10216;42.658;23.248;2023-08-31T14:12:25;1.42;;;0.75;;
20110;SDS011;10216;42.658;23.248;2023-08-31T14:14:51;2.38;;;0.70;;
20110;SDS011;10216;42.658;23.248;2023-08-31T14:17:16;3.17;;;1.00;;
20110;SDS011;10216;42.658;23.248;2023-08-31T14:19:41;1.10;;;0.63;;
20110;SDS011;10216;42.658;23.248;2023-08-31T14:22:07;2.58;;;0.75;;
20110;SDS011;10216;42.658;23.248;2023-08-31T14:24:32;1.27;;;0.70;;
20110;SDS011;10216;42.658;23.248;2023-08-31T14:26:57;0.90;;;0.45;;
20110;SDS011;10216;42.658;23.248;2023-08-31T14:29:23;1.23;;;0.85;;
20110;SDS011;10216;42.658;23.248;2023-08-31T14:31:48;0.75;;;0.57;;
20110;SDS011;10216;42.658;23.248;2023-08-31T14:34:13;1.10;;;0.70;;
20110;SDS011;10216;42.658;23.248;2023-08-31T14:36:38;0.68;;;0.68;;
20110;SDS011;10216;42.658;23.248;2023-08-31T14:39:04;1.33;;;0.90;;
20110;SDS011;10216;42.658;23.248;2023-08-31T14:41:32;2.13;;;1.13;;